< < Back
Terminal Aerodrome Forecast


Current Version              Previous Versions:   1  2  3  4  5  6  7  8  9  

Terminal Aerodrome Forecast

359
FTUS44 KMRX 242321
TAFCHA
TAF
KCHA 242321Z 2500/2524 VRB03KT P6SM SCT080 BKN150
     FM250400 15003KT P6SM VCSH BKN040 OVC100
     FM250800 15005KT 5SM -SHRA BR OVC035
     FM251300 19009KT 4SM -SHRA BR VCTS BKN015 OVC030CB
     FM251900 23012KT P6SM VCSH BKN030 OVC060
     FM252300 22008KT P6SM VCTS OVC025CB=

Latest METAR

971
SAUS80 KWBC 251200
MTRCHA
METAR KCHA 251153Z 21005KT 2SM -RA BCFG BR SCT005 BKN036 OVC070 12/11
A2979 RMK AO2 SLP084 P0002 60048 70048 T01170111 10144 20111
58022


USA.gov is the U.S. government's official web portal to all federal, state and local government web resources and services.